createdAt,value
2023-05-17T00:01:52.762Z,7.20
2023-05-17T00:04:21.667Z,7.10
2023-05-17T00:06:50.538Z,7.00
2023-05-17T00:09:19.410Z,7.00
2023-05-17T00:11:48.169Z,6.80
2023-05-17T00:14:18.391Z,6.80
2023-05-17T00:16:47.267Z,6.70
2023-05-17T00:19:16.306Z,6.70
2023-05-17T00:21:45.334Z,6.60
2023-05-17T00:24:13.988Z,6.60
2023-05-17T00:26:42.562Z,6.60
2023-05-17T00:29:11.251Z,6.50
2023-05-17T00:31:41.429Z,6.60
2023-05-17T00:34:10.228Z,6.50
2023-05-17T00:36:39.002Z,6.50
2023-05-17T00:39:07.815Z,6.50
2023-05-17T00:41:36.609Z,6.40
2023-05-17T00:44:05.383Z,6.50
2023-05-17T00:46:35.033Z,6.50
2023-05-17T00:49:05.365Z,6.60
2023-05-17T00:51:36.027Z,6.60
2023-05-17T00:54:06.572Z,6.70
2023-05-17T00:56:35.505Z,6.80
2023-05-17T00:59:06.466Z,6.90
2023-05-17T01:01:36.906Z,6.90
2023-05-17T01:04:07.538Z,7.00
2023-05-17T01:06:37.371Z,6.90
2023-05-17T01:09:09.767Z,6.90
2023-05-17T01:11:46.102Z,6.80
2023-05-17T01:14:29.684Z,6.70
2023-05-17T01:17:02.572Z,6.60
2023-05-17T01:19:58.990Z,6.60
2023-05-17T01:22:37.873Z,6.50
2023-05-17T01:25:21.300Z,6.40
2023-05-17T01:27:53.569Z,6.40
2023-05-17T01:30:24.107Z,6.40
2023-05-17T01:32:54.430Z,6.40
2023-05-17T01:35:23.269Z,6.40
2023-05-17T01:37:53.429Z,6.40
2023-05-17T01:40:23.140Z,6.40
2023-05-17T01:42:58.820Z,6.30
2023-05-17T01:45:33.085Z,6.30
2023-05-17T01:48:12.900Z,6.30
2023-05-17T01:50:43.304Z,6.30
2023-05-17T01:53:19.101Z,6.30
2023-05-17T01:55:52.930Z,6.40
2023-05-17T01:58:29.012Z,6.40
2023-05-17T02:00:59.619Z,6.30
2023-05-17T02:03:30.556Z,6.30
2023-05-17T02:05:59.488Z,6.30
2023-05-17T02:08:28.296Z,6.20
2023-05-17T02:10:57.163Z,6.10
2023-05-17T02:13:27.543Z,6.10
2023-05-17T02:15:56.353Z,6.00
2023-05-17T02:18:27.011Z,5.90
2023-05-17T02:20:55.939Z,5.90
2023-05-17T02:23:25.345Z,5.90
2023-05-17T02:25:54.852Z,5.90
2023-05-17T02:28:23.755Z,5.90
2023-05-17T02:30:54.276Z,5.80
2023-05-17T02:33:23.192Z,5.70
2023-05-17T02:35:52.037Z,5.70
2023-05-17T02:38:21.964Z,5.60
2023-05-17T02:40:50.872Z,5.50
2023-05-17T02:43:19.569Z,5.40
2023-05-17T02:45:48.334Z,5.20
2023-05-17T02:48:18.875Z,5.10
2023-05-17T02:50:48.051Z,5.00
2023-05-17T02:53:16.939Z,4.90
2023-05-17T02:55:45.824Z,4.90
2023-05-17T02:58:15.593Z,4.80
2023-05-17T03:00:46.717Z,4.80
2023-05-17T03:03:18.746Z,4.70
2023-05-17T03:05:47.639Z,4.80
2023-05-17T03:08:16.621Z,4.80
2023-05-17T03:10:46.429Z,4.90
2023-05-17T03:13:15.341Z,4.90
2023-05-17T03:15:44.103Z,4.90
2023-05-17T03:18:13.214Z,4.90
2023-05-17T03:20:43.831Z,4.90
2023-05-17T03:23:12.769Z,5.00
2023-05-17T03:25:51.056Z,5.00
2023-05-17T03:28:20.781Z,5.00
2023-05-17T03:30:50.117Z,4.90
2023-05-17T03:33:19.991Z,4.90
2023-05-17T03:35:50.750Z,5.00
2023-05-17T03:38:19.607Z,5.00
2023-05-17T03:40:48.572Z,5.10
2023-05-17T03:43:17.382Z,5.10
2023-05-17T03:45:46.443Z,5.10
2023-05-17T03:48:15.307Z,5.20
2023-05-17T03:50:45.961Z,5.30
2023-05-17T03:53:16.480Z,5.30
2023-05-17T03:55:47.641Z,5.40
2023-05-17T03:58:17.807Z,5.50
2023-05-17T04:00:46.931Z,5.60
2023-05-17T04:03:20.253Z,5.70
2023-05-17T04:05:50.779Z,5.70
2023-05-17T04:08:21.018Z,5.80
2023-05-17T04:10:49.820Z,5.90
2023-05-17T04:13:18.843Z,5.90
2023-05-17T04:15:50.317Z,6.10
2023-05-17T04:18:24.975Z,6.20
2023-05-17T04:20:53.799Z,6.30
2023-05-17T04:23:24.056Z,6.30
2023-05-17T04:25:53.351Z,6.50
2023-05-17T04:28:23.272Z,6.60
2023-05-17T04:31:21.359Z,6.60
2023-05-17T04:33:50.228Z,6.80
2023-05-17T04:36:19.333Z,6.90
2023-05-17T04:38:49.870Z,7.00
2023-05-17T04:41:22.961Z,7.10
2023-05-17T04:43:51.883Z,7.30
2023-05-17T04:46:27.503Z,7.40
2023-05-17T04:48:57.301Z,7.60
2023-05-17T04:51:27.151Z,7.80
2023-05-17T04:53:58.581Z,8.00
2023-05-17T04:56:56.825Z,8.10
2023-05-17T04:59:46.444Z,8.20
2023-05-17T05:02:15.920Z,8.30
2023-05-17T05:04:45.152Z,8.40
2023-05-17T05:07:15.057Z,8.60
2023-05-17T05:09:45.919Z,8.70
2023-05-17T05:12:16.784Z,8.80
2023-05-17T05:14:46.846Z,8.90
2023-05-17T05:17:16.239Z,9.10
2023-05-17T05:19:45.313Z,9.40
2023-05-17T05:22:14.869Z,9.60
2023-05-17T05:24:45.479Z,9.80
2023-05-17T05:27:15.576Z,10.00
2023-05-17T05:29:44.368Z,10.00
2023-05-17T05:32:13.534Z,10.00
2023-05-17T05:34:46.768Z,9.80
2023-05-17T05:37:17.234Z,9.70
2023-05-17T05:39:49.061Z,9.60
2023-05-17T05:42:18.337Z,9.60
2023-05-17T05:44:47.153Z,9.70
2023-05-17T05:47:17.134Z,9.80
2023-05-17T05:49:46.065Z,9.90
2023-05-17T05:52:14.993Z,10.20
2023-05-17T05:54:43.959Z,10.30
2023-05-17T05:57:14.282Z,10.40
2023-05-17T05:59:43.304Z,10.50
2023-05-17T06:02:16.488Z,10.60
2023-05-17T06:04:51.566Z,10.80
2023-05-17T06:07:20.773Z,11.00
2023-05-17T06:09:54.917Z,11.10
2023-05-17T06:12:25.653Z,11.40
2023-05-17T06:15:04.687Z,11.60
2023-05-17T06:17:40.402Z,11.80
2023-05-17T06:20:13.119Z,11.80
2023-05-17T06:22:42.034Z,11.80
2023-05-17T06:25:11.759Z,11.90
2023-05-17T06:27:42.050Z,12.00
2023-05-17T06:30:11.949Z,12.00
2023-05-17T06:32:40.713Z,12.10
2023-05-17T06:35:10.752Z,12.10
2023-05-17T06:37:39.509Z,12.20
2023-05-17T06:40:16.619Z,12.20
2023-05-17T06:42:47.200Z,12.30
2023-05-17T06:45:16.023Z,12.40
2023-05-17T06:47:44.867Z,12.30
2023-05-17T06:50:13.661Z,12.30
2023-05-17T06:52:42.557Z,12.30
2023-05-17T06:55:11.367Z,12.20
2023-05-17T06:57:40.228Z,12.20
2023-05-17T07:00:11.876Z,12.10
2023-05-17T07:02:41.000Z,12.20
2023-05-17T07:05:10.218Z,12.20
2023-05-17T07:07:38.918Z,12.30
2023-05-17T07:10:09.880Z,12.30
2023-05-17T07:12:39.177Z,12.50
2023-05-17T07:15:10.488Z,12.70
2023-05-17T07:17:39.332Z,12.70
2023-05-17T07:20:09.534Z,12.70
2023-05-17T07:22:39.503Z,12.40
2023-05-17T07:25:11.780Z,12.40
2023-05-17T07:27:40.745Z,12.40
2023-05-17T07:30:12.361Z,12.60
2023-05-17T07:32:41.198Z,12.70
2023-05-17T07:35:10.029Z,12.90
2023-05-17T07:37:38.955Z,13.10
2023-05-17T07:40:09.577Z,13.30
2023-05-17T07:42:38.277Z,13.50
2023-05-17T07:45:08.498Z,13.70
2023-05-17T07:47:38.878Z,13.80
2023-05-17T07:50:08.833Z,13.80
2023-05-17T07:52:37.732Z,13.60
2023-05-17T07:55:13.744Z,13.70
2023-05-17T07:57:44.165Z,13.70
2023-05-17T08:00:13.877Z,13.80
2023-05-17T08:02:44.927Z,13.90
2023-05-17T08:05:13.801Z,14.00
2023-05-17T08:07:42.549Z,13.80
2023-05-17T08:10:12.383Z,13.80
2023-05-17T08:12:41.163Z,13.90
2023-05-17T08:15:10.372Z,14.20
2023-05-17T08:17:39.207Z,14.50
2023-05-17T08:20:11.061Z,14.70
2023-05-17T08:22:39.823Z,14.90
2023-05-17T08:25:09.288Z,14.90
2023-05-17T08:27:37.918Z,14.90
2023-05-17T08:30:11.628Z,15.00
2023-05-17T08:32:45.206Z,15.10
2023-05-17T08:35:21.839Z,15.00
2023-05-17T08:37:50.764Z,15.00
2023-05-17T08:40:22.374Z,15.10
2023-05-17T08:42:52.843Z,15.20
2023-05-17T08:45:22.312Z,15.10
2023-05-17T08:47:51.558Z,15.00
2023-05-17T08:50:22.414Z,14.90
2023-05-17T08:52:53.014Z,14.90
2023-05-17T08:55:22.244Z,14.70
2023-05-17T08:57:51.800Z,14.50
2023-05-17T09:00:26.201Z,14.20
2023-05-17T09:02:55.550Z,14.20
2023-05-17T09:05:26.541Z,14.30
2023-05-17T09:07:57.512Z,14.60
2023-05-17T09:10:26.742Z,14.90
2023-05-17T09:12:55.965Z,15.20
2023-05-17T09:15:27.232Z,15.30
2023-05-17T09:17:57.354Z,15.20
2023-05-17T09:20:34.319Z,15.00
2023-05-17T09:23:04.328Z,15.00
2023-05-17T09:25:33.533Z,15.10
2023-05-17T09:28:03.771Z,15.40
2023-05-17T09:30:34.820Z,15.50
2023-05-17T09:33:08.282Z,15.50
2023-05-17T09:35:40.049Z,15.60
2023-05-17T09:38:13.937Z,15.80
2023-05-17T09:40:44.171Z,15.60
2023-05-17T09:43:14.023Z,15.40
2023-05-17T09:45:42.819Z,15.30
2023-05-17T09:48:19.481Z,15.20
2023-05-17T09:51:03.945Z,15.10
2023-05-17T09:53:42.690Z,14.80
2023-05-17T09:56:12.479Z,14.40
2023-05-17T09:58:44.551Z,14.10
2023-05-17T10:01:13.726Z,13.90
2023-05-17T10:03:43.036Z,13.70
2023-05-17T10:06:23.799Z,13.50
2023-05-17T10:09:05.385Z,13.30
2023-05-17T10:11:36.869Z,13.30
2023-05-17T10:14:11.384Z,13.30
2023-05-17T10:16:40.729Z,13.40
2023-05-17T10:19:10.360Z,13.40
2023-05-17T10:21:42.568Z,13.40
2023-05-17T10:24:12.928Z,13.50
2023-05-17T10:26:43.517Z,13.50
2023-05-17T10:29:12.816Z,13.50
2023-05-17T10:31:46.682Z,13.50
2023-05-17T10:34:45.866Z,13.40
2023-05-17T10:37:20.957Z,13.40
2023-05-17T10:39:51.260Z,13.40
2023-05-17T10:42:21.462Z,13.40
2023-05-17T10:44:51.052Z,13.40
2023-05-17T10:47:51.844Z,13.40
2023-05-17T10:50:24.402Z,13.40
2023-05-17T10:52:59.885Z,13.40
2023-05-17T10:55:40.812Z,13.50
2023-05-17T10:58:42.518Z,13.70
2023-05-17T11:01:56.802Z,13.90
2023-05-17T11:04:26.914Z,14.20
2023-05-17T11:07:16.882Z,14.60
2023-05-17T11:09:48.485Z,15.00
2023-05-17T11:12:18.759Z,15.40
2023-05-17T11:14:53.890Z,15.60
2023-05-17T11:17:25.384Z,15.60
2023-05-17T11:20:02.891Z,15.70
2023-05-17T11:22:40.239Z,15.80
2023-05-17T11:25:13.038Z,15.70
2023-05-17T11:27:48.447Z,15.50
2023-05-17T11:30:23.612Z,15.30
2023-05-17T11:32:55.396Z,15.10
2023-05-17T11:35:31.366Z,14.90
2023-05-17T11:38:15.707Z,15.00
2023-05-17T11:40:47.642Z,15.20
2023-05-17T11:44:02.842Z,15.50
2023-05-17T11:47:06.185Z,15.90
2023-05-17T11:50:02.539Z,16.30
2023-05-17T11:52:33.064Z,16.30
2023-05-17T11:55:11.522Z,16.30
2023-05-17T11:57:49.416Z,16.30
2023-05-17T12:00:27.267Z,16.30
2023-05-17T12:04:02.331Z,16.40
2023-05-17T12:06:39.947Z,16.20
2023-05-17T12:12:39.045Z,16.60
2023-05-17T12:15:47.373Z,17.10
2023-05-17T12:18:46.489Z,17.30
2023-05-17T12:21:38.753Z,17.30
2023-05-17T12:28:03.662Z,16.90
2023-05-17T12:30:54.380Z,17.00
2023-05-17T12:33:44.660Z,17.00
2023-05-17T12:36:34.039Z,16.70
2023-05-17T12:39:19.027Z,16.60
2023-05-17T12:42:25.426Z,16.80
2023-05-17T12:46:01.826Z,17.10
2023-05-17T12:50:14.464Z,17.20
2023-05-17T12:53:24.837Z,17.20
2023-05-17T12:55:59.206Z,17.00
2023-05-17T12:58:35.729Z,17.00
2023-05-17T13:01:34.200Z,16.80
2023-05-17T13:04:03.798Z,16.80
2023-05-17T13:06:51.453Z,16.90
2023-05-17T13:09:24.245Z,17.10
2023-05-17T13:11:54.097Z,17.20
2023-05-17T13:14:37.227Z,17.30
2023-05-17T13:17:07.520Z,17.40
2023-05-17T13:19:39.267Z,17.50
2023-05-17T13:22:08.753Z,17.70
2023-05-17T13:24:40.322Z,17.90
2023-05-17T13:27:09.452Z,18.20
2023-05-17T13:29:40.888Z,18.20
2023-05-17T13:32:11.858Z,18.00
2023-05-17T13:34:41.839Z,17.90
2023-05-17T13:37:12.376Z,18.00
2023-05-17T13:39:43.961Z,18.00
2023-05-17T13:42:13.473Z,17.70
2023-05-17T13:44:42.666Z,17.40
2023-05-17T13:47:12.024Z,17.10
2023-05-17T13:49:41.365Z,17.00
2023-05-17T13:52:12.691Z,16.80
2023-05-17T13:54:43.093Z,16.80
2023-05-17T13:57:11.905Z,17.10
2023-05-17T13:59:40.969Z,17.10
2023-05-17T14:02:10.651Z,17.10
2023-05-17T14:04:39.687Z,16.80
2023-05-17T14:07:08.779Z,16.60
2023-05-17T14:09:37.824Z,16.70
2023-05-17T14:12:08.743Z,17.00
2023-05-17T14:14:37.685Z,17.20
2023-05-17T14:17:06.782Z,17.50
2023-05-17T14:19:35.851Z,17.70
2023-05-17T14:22:05.470Z,18.00
2023-05-17T14:24:36.206Z,18.00
2023-05-17T14:27:06.123Z,18.10
2023-05-17T14:29:37.241Z,18.20
2023-05-17T14:32:07.480Z,18.20
2023-05-17T14:34:36.596Z,18.10
2023-05-17T14:37:06.314Z,17.90
2023-05-17T14:39:35.426Z,17.80
2023-05-17T14:42:11.250Z,17.70
2023-05-17T14:44:42.026Z,17.70
2023-05-17T14:47:12.235Z,17.80
2023-05-17T14:49:42.942Z,18.10
2023-05-17T14:52:13.015Z,18.20
2023-05-17T14:54:42.960Z,18.00
2023-05-17T14:57:12.256Z,17.90
2023-05-17T14:59:45.154Z,17.80
2023-05-17T15:02:14.730Z,17.80
2023-05-17T15:04:44.899Z,17.60
2023-05-17T15:07:15.131Z,17.50
2023-05-17T15:10:15.292Z,17.40
2023-05-17T15:12:52.455Z,17.50
2023-05-17T15:15:31.936Z,17.90
2023-05-17T15:18:01.854Z,18.30
2023-05-17T15:20:31.621Z,18.60
2023-05-17T15:23:05.684Z,18.80
2023-05-17T15:25:35.112Z,18.50
2023-05-17T15:28:04.106Z,18.30
2023-05-17T15:30:37.769Z,17.90
2023-05-17T15:33:06.809Z,17.40
2023-05-17T15:35:35.917Z,17.30
2023-05-17T15:38:07.366Z,17.30
2023-05-17T15:40:36.489Z,17.20
2023-05-17T15:43:07.630Z,17.20
2023-05-17T15:45:38.315Z,17.30
2023-05-17T15:48:11.573Z,17.30
2023-05-17T15:50:43.954Z,17.30
2023-05-17T15:53:13.216Z,17.10
2023-05-17T15:55:42.413Z,17.00
2023-05-17T15:58:15.280Z,16.90
2023-05-17T16:00:45.534Z,17.00
2023-05-17T16:03:15.323Z,17.10
2023-05-17T16:06:11.417Z,17.20
2023-05-17T16:08:40.560Z,17.40
2023-05-17T16:11:10.158Z,17.50
2023-05-17T16:13:41.398Z,17.60
2023-05-17T16:16:13.495Z,17.50
2023-05-17T16:18:42.620Z,17.40
2023-05-17T16:21:11.662Z,17.30
2023-05-17T16:23:41.102Z,17.10
2023-05-17T16:26:10.502Z,17.10
2023-05-17T16:28:39.585Z,17.10
2023-05-17T16:31:08.815Z,17.10
2023-05-17T16:33:41.743Z,17.10
2023-05-17T16:36:37.040Z,17.00
2023-05-17T16:39:07.207Z,16.90
2023-05-17T16:41:36.421Z,16.80
2023-05-17T16:44:05.283Z,16.80
2023-05-17T16:46:34.421Z,16.60
2023-05-17T16:49:04.908Z,16.50
2023-05-17T16:51:33.885Z,16.50
2023-05-17T16:54:02.746Z,16.80
2023-05-17T16:56:32.616Z,17.40
2023-05-17T16:59:01.426Z,18.20
2023-05-17T17:01:30.132Z,18.60
2023-05-17T17:03:59.062Z,18.80
2023-05-17T17:06:29.498Z,18.60
2023-05-17T17:08:58.404Z,17.90
2023-05-17T17:11:29.664Z,17.40
2023-05-17T17:13:58.794Z,17.20
2023-05-17T17:16:27.782Z,17.70
2023-05-17T17:18:58.697Z,18.00
2023-05-17T17:21:29.087Z,17.70
2023-05-17T17:23:59.324Z,17.30
2023-05-17T17:26:30.251Z,17.40
2023-05-17T17:28:59.597Z,17.40
2023-05-17T17:31:30.307Z,18.00
2023-05-17T17:33:59.478Z,19.00
2023-05-17T17:36:30.554Z,20.20
2023-05-17T17:38:59.335Z,21.40
2023-05-17T17:41:28.036Z,22.30
2023-05-17T17:43:56.837Z,23.00
2023-05-17T17:46:26.575Z,23.50
2023-05-17T17:48:56.794Z,23.40
2023-05-17T17:51:25.685Z,23.40
2023-05-17T17:53:56.318Z,23.40
2023-05-17T17:56:25.949Z,23.40
2023-05-17T17:58:56.360Z,23.20
2023-05-17T18:01:25.797Z,23.00
2023-05-17T18:03:54.805Z,22.50
2023-05-17T18:06:24.431Z,22.00
2023-05-17T18:08:56.708Z,21.50
2023-05-17T18:11:26.637Z,20.90
2023-05-17T18:14:25.323Z,20.50
2023-05-17T18:16:54.904Z,20.10
2023-05-17T18:19:24.308Z,19.80
2023-05-17T18:21:53.554Z,19.00
2023-05-17T18:24:24.157Z,18.20
2023-05-17T18:26:53.145Z,17.40
2023-05-17T18:29:22.196Z,16.80
2023-05-17T18:31:52.187Z,16.20
2023-05-17T18:34:21.211Z,15.70
2023-05-17T18:36:50.409Z,15.40
2023-05-17T18:39:19.265Z,15.10
2023-05-17T18:41:50.014Z,14.80
2023-05-17T18:44:20.056Z,14.60
2023-05-17T18:46:50.148Z,14.40
2023-05-17T18:49:21.438Z,14.30
2023-05-17T18:51:52.484Z,14.10
2023-05-17T18:54:23.654Z,14.00
2023-05-17T18:56:54.398Z,13.80
2023-05-17T18:59:23.529Z,13.70
2023-05-17T19:01:52.899Z,13.60
2023-05-17T19:04:27.010Z,13.40
2023-05-17T19:06:59.203Z,13.30
2023-05-17T19:09:32.069Z,13.10
2023-05-17T19:12:02.948Z,13.00
2023-05-17T19:14:33.987Z,12.90
2023-05-17T19:17:03.551Z,12.80
2023-05-17T19:19:32.676Z,12.70
2023-05-17T19:22:02.486Z,12.60
2023-05-17T19:24:32.157Z,12.60
2023-05-17T19:27:02.732Z,12.50
2023-05-17T19:29:33.358Z,12.40
2023-05-17T19:32:02.373Z,12.40
2023-05-17T19:34:31.459Z,12.30
2023-05-17T19:37:01.107Z,12.30
2023-05-17T19:39:30.248Z,12.20
2023-05-17T19:41:59.266Z,12.20
2023-05-17T19:44:29.936Z,12.10
2023-05-17T19:46:59.335Z,12.10
2023-05-17T19:49:35.853Z,12.00
2023-05-17T19:52:05.279Z,11.90
2023-05-17T19:54:34.799Z,11.90
2023-05-17T19:57:14.176Z,11.80
2023-05-17T19:59:45.365Z,11.80
2023-05-17T20:02:14.460Z,11.80
2023-05-17T20:04:43.641Z,11.70
2023-05-17T20:07:12.784Z,11.70
2023-05-17T20:09:41.830Z,11.80
2023-05-17T20:12:11.183Z,11.70
2023-05-17T20:14:40.174Z,11.70
2023-05-17T20:17:10.690Z,11.70
2023-05-17T20:19:39.531Z,11.60
2023-05-17T20:22:08.538Z,11.50
2023-05-17T20:24:37.604Z,11.50
2023-05-17T20:27:09.193Z,11.40
2023-05-17T20:29:38.540Z,11.40
2023-05-17T20:32:08.922Z,11.30
2023-05-17T20:34:39.565Z,11.30
2023-05-17T20:37:08.504Z,11.20
2023-05-17T20:39:37.538Z,11.20
2023-05-17T20:42:07.926Z,11.20
2023-05-17T20:44:37.292Z,11.20
2023-05-17T20:47:06.771Z,11.10
2023-05-17T20:49:36.269Z,11.10
2023-05-17T20:52:07.299Z,11.10
2023-05-17T20:54:37.219Z,11.10
2023-05-17T20:57:06.810Z,11.10
2023-05-17T20:59:36.835Z,11.10
2023-05-17T21:02:08.440Z,11.00
2023-05-17T21:04:38.067Z,10.90
2023-05-17T21:07:12.106Z,10.80
2023-05-17T21:09:42.123Z,10.70
2023-05-17T21:12:11.482Z,10.70
2023-05-17T21:14:40.538Z,10.60
2023-05-17T21:17:10.239Z,10.50
2023-05-17T21:19:44.134Z,10.30
2023-05-17T21:22:14.843Z,10.20
2023-05-17T21:24:44.023Z,10.10
2023-05-17T21:27:13.282Z,9.90
2023-05-17T21:29:42.493Z,9.80
2023-05-17T21:32:11.618Z,9.60
2023-05-17T21:34:41.164Z,9.50
2023-05-17T21:37:10.402Z,9.40
2023-05-17T21:39:44.758Z,9.30
2023-05-17T21:42:14.480Z,9.30
2023-05-17T21:44:43.920Z,9.20
2023-05-17T21:47:14.406Z,9.20
2023-05-17T21:49:49.452Z,9.30
2023-05-17T21:52:19.180Z,9.20
2023-05-17T21:54:50.152Z,9.20
2023-05-17T21:57:21.304Z,9.10
2023-05-17T21:59:54.627Z,9.10
2023-05-17T22:02:28.439Z,9.00
2023-05-17T22:04:58.058Z,9.00
2023-05-17T22:07:29.392Z,9.00
2023-05-17T22:10:10.052Z,9.00
2023-05-17T22:12:40.759Z,9.00
2023-05-17T22:15:16.896Z,9.10
2023-05-17T22:18:04.597Z,9.00
2023-05-17T22:20:34.278Z,9.00
2023-05-17T22:23:04.504Z,9.00
2023-05-17T22:25:36.952Z,9.00
2023-05-17T22:28:06.819Z,9.00
2023-05-17T22:30:36.635Z,9.00
2023-05-17T22:33:09.250Z,8.90
2023-05-17T22:35:38.860Z,8.90
2023-05-17T22:38:08.082Z,8.80
2023-05-17T22:40:38.888Z,8.80
2023-05-17T22:43:08.386Z,8.80
2023-05-17T22:45:37.321Z,8.90
2023-05-17T22:48:06.989Z,8.90
2023-05-17T22:50:36.526Z,8.90
2023-05-17T22:53:06.067Z,8.90
2023-05-17T22:55:34.942Z,8.80
2023-05-17T22:58:05.341Z,8.80
2023-05-17T23:00:34.381Z,8.70
2023-05-17T23:03:03.282Z,8.70
2023-05-17T23:05:33.702Z,8.60
2023-05-17T23:08:02.554Z,8.60
2023-05-17T23:10:31.650Z,8.40
2023-05-17T23:13:00.541Z,8.40
2023-05-17T23:15:34.364Z,8.30
2023-05-17T23:18:03.428Z,8.20
2023-05-17T23:20:32.385Z,8.20
2023-05-17T23:23:01.845Z,8.10
2023-05-17T23:25:31.755Z,8.10
2023-05-17T23:28:00.778Z,8.00
2023-05-17T23:30:31.215Z,7.90
2023-05-17T23:33:00.391Z,7.80
2023-05-17T23:35:29.417Z,7.70
2023-05-17T23:37:58.627Z,7.50
2023-05-17T23:40:27.593Z,7.40
2023-05-17T23:42:56.777Z,7.30
2023-05-17T23:45:25.733Z,7.10
2023-05-17T23:47:57.763Z,6.90
2023-05-17T23:50:26.813Z,6.80
2023-05-17T23:52:56.085Z,6.70
2023-05-17T23:55:25.149Z,6.60
2023-05-17T23:57:53.943Z,6.50
